sensor_id;sensor_type;location;lat;lon;timestamp;P1;durP1;ratioP1;P2;durP2;ratioP2
27794;SDS011;15176;50.844;4.412;2023-05-10T00:00:11;17.15;;;7.15;;
27794;SDS011;15176;50.844;4.412;2023-05-10T00:02:37;12.35;;;6.90;;
27794;SDS011;15176;50.844;4.412;2023-05-10T00:05:04;16.00;;;6.90;;
27794;SDS011;15176;50.844;4.412;2023-05-10T00:07:30;15.75;;;6.72;;
27794;SDS011;15176;50.844;4.412;2023-05-10T00:09:55;14.93;;;7.03;;
27794;SDS011;15176;50.844;4.412;2023-05-10T00:12:21;13.85;;;7.03;;
27794;SDS011;15176;50.844;4.412;2023-05-10T00:14:47;15.38;;;6.18;;
27794;SDS011;15176;50.844;4.412;2023-05-10T00:17:13;12.50;;;6.25;;
27794;SDS011;15176;50.844;4.412;2023-05-10T00:19:39;15.85;;;7.68;;
27794;SDS011;15176;50.844;4.412;2023-05-10T00:22:05;16.20;;;7.45;;
27794;SDS011;15176;50.844;4.412;2023-05-10T00:24:31;15.18;;;7.30;;
27794;SDS011;15176;50.844;4.412;2023-05-10T00:27:00;17.10;;;7.68;;
27794;SDS011;15176;50.844;4.412;2023-05-10T00:29:25;16.23;;;7.85;;
27794;SDS011;15176;50.844;4.412;2023-05-10T00:31:54;16.67;;;7.75;;
27794;SDS011;15176;50.844;4.412;2023-05-10T00:34:21;15.50;;;7.40;;
27794;SDS011;15176;50.844;4.412;2023-05-10T00:36:48;18.52;;;8.43;;
27794;SDS011;15176;50.844;4.412;2023-05-10T00:39:13;16.50;;;8.02;;
27794;SDS011;15176;50.844;4.412;2023-05-10T00:41:39;17.80;;;8.60;;
27794;SDS011;15176;50.844;4.412;2023-05-10T00:44:05;16.73;;;8.57;;
27794;SDS011;15176;50.844;4.412;2023-05-10T00:46:31;24.33;;;8.95;;
27794;SDS011;15176;50.844;4.412;2023-05-10T00:48:57;16.95;;;8.68;;
27794;SDS011;15176;50.844;4.412;2023-05-10T00:51:22;18.73;;;8.75;;
27794;SDS011;15176;50.844;4.412;2023-05-10T00:53:50;15.90;;;8.20;;
27794;SDS011;15176;50.844;4.412;2023-05-10T00:56:16;17.75;;;8.05;;
27794;SDS011;15176;50.844;4.412;2023-05-10T00:58:42;17.10;;;8.00;;
27794;SDS011;15176;50.844;4.412;2023-05-10T01:01:08;18.17;;;8.48;;
27794;SDS011;15176;50.844;4.412;2023-05-10T01:03:35;19.85;;;8.88;;
27794;SDS011;15176;50.844;4.412;2023-05-10T01:06:02;15.63;;;8.57;;
27794;SDS011;15176;50.844;4.412;2023-05-10T01:08:28;17.58;;;9.30;;
27794;SDS011;15176;50.844;4.412;2023-05-10T01:10:54;19.70;;;9.27;;
27794;SDS011;15176;50.844;4.412;2023-05-10T01:13:36;20.25;;;9.45;;
27794;SDS011;15176;50.844;4.412;2023-05-10T01:16:04;19.60;;;9.27;;
27794;SDS011;15176;50.844;4.412;2023-05-10T01:18:32;17.08;;;9.07;;
27794;SDS011;15176;50.844;4.412;2023-05-10T01:41:11;15.73;;;9.63;;
27794;SDS011;15176;50.844;4.412;2023-05-10T01:44:02;19.83;;;9.95;;
27794;SDS011;15176;50.844;4.412;2023-05-10T01:46:37;16.45;;;8.98;;
27794;SDS011;15176;50.844;4.412;2023-05-10T01:49:08;19.00;;;10.45;;
27794;SDS011;15176;50.844;4.412;2023-05-10T01:51:41;19.20;;;10.25;;
27794;SDS011;15176;50.844;4.412;2023-05-10T01:54:11;17.88;;;9.80;;
27794;SDS011;15176;50.844;4.412;2023-05-10T01:56:40;19.48;;;10.15;;
27794;SDS011;15176;50.844;4.412;2023-05-10T01:59:13;20.58;;;9.70;;
27794;SDS011;15176;50.844;4.412;2023-05-10T02:01:44;17.00;;;10.13;;
27794;SDS011;15176;50.844;4.412;2023-05-10T02:04:11;20.10;;;10.20;;
27794;SDS011;15176;50.844;4.412;2023-05-10T02:06:40;16.30;;;9.85;;
27794;SDS011;15176;50.844;4.412;2023-05-10T02:09:07;17.40;;;10.50;;
27794;SDS011;15176;50.844;4.412;2023-05-10T02:11:36;19.48;;;11.07;;
27794;SDS011;15176;50.844;4.412;2023-05-10T02:14:05;18.80;;;10.75;;
27794;SDS011;15176;50.844;4.412;2023-05-10T02:16:32;22.63;;;10.25;;
27794;SDS011;15176;50.844;4.412;2023-05-10T02:19:00;19.33;;;10.57;;
27794;SDS011;15176;50.844;4.412;2023-05-10T02:21:27;17.63;;;10.70;;
27794;SDS011;15176;50.844;4.412;2023-05-10T02:23:54;22.10;;;10.68;;
27794;SDS011;15176;50.844;4.412;2023-05-10T02:26:21;21.05;;;11.07;;
27794;SDS011;15176;50.844;4.412;2023-05-10T02:28:50;20.15;;;10.77;;
27794;SDS011;15176;50.844;4.412;2023-05-10T02:31:17;18.92;;;10.70;;
27794;SDS011;15176;50.844;4.412;2023-05-10T02:33:45;18.70;;;10.10;;
27794;SDS011;15176;50.844;4.412;2023-05-10T02:36:13;17.92;;;9.23;;
27794;SDS011;15176;50.844;4.412;2023-05-10T02:38:40;19.83;;;10.55;;
27794;SDS011;15176;50.844;4.412;2023-05-10T02:41:07;17.25;;;9.88;;
27794;SDS011;15176;50.844;4.412;2023-05-10T02:43:34;16.98;;;9.65;;
27794;SDS011;15176;50.844;4.412;2023-05-10T02:46:02;20.13;;;9.65;;
27794;SDS011;15176;50.844;4.412;2023-05-10T02:48:28;19.83;;;10.18;;
27794;SDS011;15176;50.844;4.412;2023-05-10T02:50:55;16.02;;;9.25;;
27794;SDS011;15176;50.844;4.412;2023-05-10T02:53:26;17.83;;;9.63;;
27794;SDS011;15176;50.844;4.412;2023-05-10T02:55:57;20.70;;;9.32;;
27794;SDS011;15176;50.844;4.412;2023-05-10T02:58:26;16.30;;;8.95;;
27794;SDS011;15176;50.844;4.412;2023-05-10T03:00:53;18.30;;;9.35;;
27794;SDS011;15176;50.844;4.412;2023-05-10T03:03:20;18.25;;;9.35;;
27794;SDS011;15176;50.844;4.412;2023-05-10T03:05:46;16.92;;;9.48;;
27794;SDS011;15176;50.844;4.412;2023-05-10T03:08:11;15.90;;;8.90;;
27794;SDS011;15176;50.844;4.412;2023-05-10T03:10:55;19.42;;;9.43;;
27794;SDS011;15176;50.844;4.412;2023-05-10T03:13:39;21.20;;;9.35;;
27794;SDS011;15176;50.844;4.412;2023-05-10T03:16:40;20.23;;;9.55;;
27794;SDS011;15176;50.844;4.412;2023-05-10T03:19:14;16.70;;;8.70;;
27794;SDS011;15176;50.844;4.412;2023-05-10T03:21:50;14.50;;;7.80;;
27794;SDS011;15176;50.844;4.412;2023-05-10T03:24:23;16.92;;;9.15;;
27794;SDS011;15176;50.844;4.412;2023-05-10T03:26:50;16.15;;;9.25;;
27794;SDS011;15176;50.844;4.412;2023-05-10T03:29:20;18.17;;;8.57;;
27794;SDS011;15176;50.844;4.412;2023-05-10T03:31:47;22.52;;;11.05;;
27794;SDS011;15176;50.844;4.412;2023-05-10T03:34:13;18.50;;;10.35;;
27794;SDS011;15176;50.844;4.412;2023-05-10T03:36:40;19.85;;;10.40;;
27794;SDS011;15176;50.844;4.412;2023-05-10T03:39:06;17.75;;;9.65;;
27794;SDS011;15176;50.844;4.412;2023-05-10T03:41:31;20.08;;;10.68;;
27794;SDS011;15176;50.844;4.412;2023-05-10T03:43:57;22.30;;;10.80;;
27794;SDS011;15176;50.844;4.412;2023-05-10T03:46:23;21.48;;;10.65;;
27794;SDS011;15176;50.844;4.412;2023-05-10T03:48:48;20.92;;;11.00;;
27794;SDS011;15176;50.844;4.412;2023-05-10T03:51:15;21.63;;;11.18;;
27794;SDS011;15176;50.844;4.412;2023-05-10T03:53:41;22.65;;;11.48;;
27794;SDS011;15176;50.844;4.412;2023-05-10T03:56:07;20.30;;;11.35;;
27794;SDS011;15176;50.844;4.412;2023-05-10T03:58:32;18.33;;;10.73;;
27794;SDS011;15176;50.844;4.412;2023-05-10T04:00:58;29.42;;;11.27;;
27794;SDS011;15176;50.844;4.412;2023-05-10T04:03:23;19.85;;;10.32;;
27794;SDS011;15176;50.844;4.412;2023-05-10T04:05:58;23.38;;;12.20;;
27794;SDS011;15176;50.844;4.412;2023-05-10T04:08:25;23.55;;;12.23;;
27794;SDS011;15176;50.844;4.412;2023-05-10T04:10:51;20.13;;;10.77;;
27794;SDS011;15176;50.844;4.412;2023-05-10T04:13:17;22.08;;;12.63;;
27794;SDS011;15176;50.844;4.412;2023-05-10T04:15:42;21.92;;;12.50;;
27794;SDS011;15176;50.844;4.412;2023-05-10T04:18:08;22.90;;;13.48;;
27794;SDS011;15176;50.844;4.412;2023-05-10T04:20:35;24.50;;;13.27;;
27794;SDS011;15176;50.844;4.412;2023-05-10T04:23:00;22.98;;;12.30;;
27794;SDS011;15176;50.844;4.412;2023-05-10T04:25:26;23.35;;;13.20;;
27794;SDS011;15176;50.844;4.412;2023-05-10T04:27:52;25.40;;;13.63;;
27794;SDS011;15176;50.844;4.412;2023-05-10T04:30:17;18.40;;;10.57;;
27794;SDS011;15176;50.844;4.412;2023-05-10T04:32:43;15.68;;;9.45;;
27794;SDS011;15176;50.844;4.412;2023-05-10T04:35:09;19.30;;;10.68;;
27794;SDS011;15176;50.844;4.412;2023-05-10T04:37:35;20.98;;;12.73;;
27794;SDS011;15176;50.844;4.412;2023-05-10T04:40:01;21.15;;;11.63;;
27794;SDS011;15176;50.844;4.412;2023-05-10T04:42:28;25.45;;;13.93;;
27794;SDS011;15176;50.844;4.412;2023-05-10T04:44:54;25.75;;;14.00;;
27794;SDS011;15176;50.844;4.412;2023-05-10T04:47:21;21.67;;;13.50;;
27794;SDS011;15176;50.844;4.412;2023-05-10T04:49:46;24.17;;;13.73;;
27794;SDS011;15176;50.844;4.412;2023-05-10T04:52:12;23.25;;;13.43;;
27794;SDS011;15176;50.844;4.412;2023-05-10T04:54:38;24.20;;;12.80;;
27794;SDS011;15176;50.844;4.412;2023-05-10T04:57:04;22.83;;;13.40;;
27794;SDS011;15176;50.844;4.412;2023-05-10T04:59:29;24.42;;;14.02;;
27794;SDS011;15176;50.844;4.412;2023-05-10T05:01:55;23.25;;;13.57;;
27794;SDS011;15176;50.844;4.412;2023-05-10T05:04:21;27.35;;;15.65;;
27794;SDS011;15176;50.844;4.412;2023-05-10T05:06:48;26.88;;;16.38;;
27794;SDS011;15176;50.844;4.412;2023-05-10T05:09:15;27.20;;;14.73;;
27794;SDS011;15176;50.844;4.412;2023-05-10T05:11:41;22.85;;;13.65;;
27794;SDS011;15176;50.844;4.412;2023-05-10T05:14:06;26.52;;;15.63;;
27794;SDS011;15176;50.844;4.412;2023-05-10T05:16:33;29.20;;;16.58;;
27794;SDS011;15176;50.844;4.412;2023-05-10T05:18:59;27.27;;;15.27;;
27794;SDS011;15176;50.844;4.412;2023-05-10T05:21:25;29.02;;;16.20;;
27794;SDS011;15176;50.844;4.412;2023-05-10T05:23:52;15.93;;;8.65;;
27794;SDS011;15176;50.844;4.412;2023-05-10T05:26:18;21.58;;;13.75;;
27794;SDS011;15176;50.844;4.412;2023-05-10T05:28:43;24.88;;;15.07;;
27794;SDS011;15176;50.844;4.412;2023-05-10T05:31:09;26.98;;;15.48;;
27794;SDS011;15176;50.844;4.412;2023-05-10T05:33:35;27.65;;;16.08;;
27794;SDS011;15176;50.844;4.412;2023-05-10T05:36:01;24.58;;;15.10;;
27794;SDS011;15176;50.844;4.412;2023-05-10T05:38:28;23.73;;;12.82;;
27794;SDS011;15176;50.844;4.412;2023-05-10T05:40:53;18.13;;;9.55;;
27794;SDS011;15176;50.844;4.412;2023-05-10T05:43:19;16.25;;;9.25;;
27794;SDS011;15176;50.844;4.412;2023-05-10T05:45:46;15.02;;;8.95;;
27794;SDS011;15176;50.844;4.412;2023-05-10T05:48:12;19.52;;;8.95;;
27794;SDS011;15176;50.844;4.412;2023-05-10T05:50:38;18.52;;;9.00;;
27794;SDS011;15176;50.844;4.412;2023-05-10T05:53:03;15.80;;;9.52;;
27794;SDS011;15176;50.844;4.412;2023-05-10T05:55:29;14.60;;;8.88;;
27794;SDS011;15176;50.844;4.412;2023-05-10T05:57:56;16.00;;;8.35;;
27794;SDS011;15176;50.844;4.412;2023-05-10T06:00:22;13.52;;;7.70;;
27794;SDS011;15176;50.844;4.412;2023-05-10T06:02:48;14.75;;;8.98;;
27794;SDS011;15176;50.844;4.412;2023-05-10T06:05:13;15.00;;;9.00;;
27794;SDS011;15176;50.844;4.412;2023-05-10T06:07:39;16.77;;;9.20;;
27794;SDS011;15176;50.844;4.412;2023-05-10T06:10:08;19.73;;;10.13;;
27794;SDS011;15176;50.844;4.412;2023-05-10T06:12:35;19.10;;;10.68;;
27794;SDS011;15176;50.844;4.412;2023-05-10T06:15:01;23.10;;;11.20;;
27794;SDS011;15176;50.844;4.412;2023-05-10T06:17:27;18.77;;;10.77;;
27794;SDS011;15176;50.844;4.412;2023-05-10T06:19:53;20.60;;;10.90;;
27794;SDS011;15176;50.844;4.412;2023-05-10T06:22:19;21.25;;;9.50;;
27794;SDS011;15176;50.844;4.412;2023-05-10T06:24:47;20.15;;;9.45;;
27794;SDS011;15176;50.844;4.412;2023-05-10T06:27:13;16.52;;;8.43;;
27794;SDS011;15176;50.844;4.412;2023-05-10T06:29:39;17.85;;;8.77;;
27794;SDS011;15176;50.844;4.412;2023-05-10T06:32:05;17.55;;;8.00;;
27794;SDS011;15176;50.844;4.412;2023-05-10T06:34:30;16.85;;;7.65;;
27794;SDS011;15176;50.844;4.412;2023-05-10T06:36:56;16.25;;;7.00;;
27794;SDS011;15176;50.844;4.412;2023-05-10T06:39:22;12.27;;;6.25;;
27794;SDS011;15176;50.844;4.412;2023-05-10T06:41:48;15.13;;;5.97;;
27794;SDS011;15176;50.844;4.412;2023-05-10T06:44:13;10.50;;;5.30;;
27794;SDS011;15176;50.844;4.412;2023-05-10T06:46:39;10.63;;;4.82;;
27794;SDS011;15176;50.844;4.412;2023-05-10T06:49:06;9.82;;;4.20;;
27794;SDS011;15176;50.844;4.412;2023-05-10T06:51:32;10.20;;;4.68;;
27794;SDS011;15176;50.844;4.412;2023-05-10T06:53:57;11.55;;;4.65;;
27794;SDS011;15176;50.844;4.412;2023-05-10T06:56:23;13.50;;;5.25;;
27794;SDS011;15176;50.844;4.412;2023-05-10T06:58:49;10.23;;;5.32;;
27794;SDS011;15176;50.844;4.412;2023-05-10T07:01:15;11.93;;;5.70;;
27794;SDS011;15176;50.844;4.412;2023-05-10T07:03:41;12.95;;;6.03;;
27794;SDS011;15176;50.844;4.412;2023-05-10T07:06:06;9.40;;;5.80;;
27794;SDS011;15176;50.844;4.412;2023-05-10T07:08:33;10.00;;;5.95;;
27794;SDS011;15176;50.844;4.412;2023-05-10T07:11:03;12.10;;;6.07;;
27794;SDS011;15176;50.844;4.412;2023-05-10T07:13:32;15.23;;;6.20;;
27794;SDS011;15176;50.844;4.412;2023-05-10T07:15:59;14.48;;;5.63;;
27794;SDS011;15176;50.844;4.412;2023-05-10T07:18:28;15.63;;;7.15;;
27794;SDS011;15176;50.844;4.412;2023-05-10T07:20:54;18.35;;;8.30;;
27794;SDS011;15176;50.844;4.412;2023-05-10T07:23:24;15.23;;;7.75;;
27794;SDS011;15176;50.844;4.412;2023-05-10T07:25:50;11.38;;;7.30;;
27794;SDS011;15176;50.844;4.412;2023-05-10T07:28:17;26.98;;;15.23;;
27794;SDS011;15176;50.844;4.412;2023-05-10T07:30:43;18.70;;;8.10;;
27794;SDS011;15176;50.844;4.412;2023-05-10T07:33:10;27.30;;;13.50;;
27794;SDS011;15176;50.844;4.412;2023-05-10T07:35:37;18.05;;;9.18;;
27794;SDS011;15176;50.844;4.412;2023-05-10T07:38:03;21.73;;;9.20;;
27794;SDS011;15176;50.844;4.412;2023-05-10T07:40:29;25.23;;;9.70;;
27794;SDS011;15176;50.844;4.412;2023-05-10T07:42:55;24.60;;;9.25;;
27794;SDS011;15176;50.844;4.412;2023-05-10T07:45:21;18.42;;;9.50;;
27794;SDS011;15176;50.844;4.412;2023-05-10T07:47:47;15.65;;;8.60;;
27794;SDS011;15176;50.844;4.412;2023-05-10T07:50:12;15.20;;;7.97;;
27794;SDS011;15176;50.844;4.412;2023-05-10T07:52:39;17.35;;;8.50;;
27794;SDS011;15176;50.844;4.412;2023-05-10T07:55:04;14.20;;;8.27;;
27794;SDS011;15176;50.844;4.412;2023-05-10T07:57:32;15.98;;;8.27;;
27794;SDS011;15176;50.844;4.412;2023-05-10T07:59:58;14.90;;;7.70;;
27794;SDS011;15176;50.844;4.412;2023-05-10T08:02:24;15.68;;;7.25;;
27794;SDS011;15176;50.844;4.412;2023-05-10T08:04:52;15.48;;;7.95;;
27794;SDS011;15176;50.844;4.412;2023-05-10T08:07:18;19.42;;;9.77;;
27794;SDS011;15176;50.844;4.412;2023-05-10T08:09:49;17.48;;;7.25;;
27794;SDS011;15176;50.844;4.412;2023-05-10T08:12:14;16.33;;;6.90;;
27794;SDS011;15176;50.844;4.412;2023-05-10T08:14:40;18.30;;;7.45;;
27794;SDS011;15176;50.844;4.412;2023-05-10T08:17:09;15.85;;;7.95;;
27794;SDS011;15176;50.844;4.412;2023-05-10T08:19:34;15.43;;;7.90;;
27794;SDS011;15176;50.844;4.412;2023-05-10T08:22:00;17.48;;;8.50;;
27794;SDS011;15176;50.844;4.412;2023-05-10T08:24:26;13.93;;;7.32;;
27794;SDS011;15176;50.844;4.412;2023-05-10T08:26:51;15.15;;;7.90;;
27794;SDS011;15176;50.844;4.412;2023-05-10T08:29:17;15.57;;;7.68;;
27794;SDS011;15176;50.844;4.412;2023-05-10T08:31:43;12.07;;;6.75;;
27794;SDS011;15176;50.844;4.412;2023-05-10T08:34:09;13.52;;;7.20;;
27794;SDS011;15176;50.844;4.412;2023-05-10T08:36:39;11.00;;;6.25;;
27794;SDS011;15176;50.844;4.412;2023-05-10T08:39:05;13.82;;;6.38;;
27794;SDS011;15176;50.844;4.412;2023-05-10T08:41:31;13.38;;;6.85;;
27794;SDS011;15176;50.844;4.412;2023-05-10T08:43:59;11.05;;;5.45;;
27794;SDS011;15176;50.844;4.412;2023-05-10T08:46:30;11.10;;;5.80;;
27794;SDS011;15176;50.844;4.412;2023-05-10T08:48:59;12.27;;;5.50;;
27794;SDS011;15176;50.844;4.412;2023-05-10T08:51:29;11.25;;;5.25;;
27794;SDS011;15176;50.844;4.412;2023-05-10T08:54:00;14.32;;;5.90;;
27794;SDS011;15176;50.844;4.412;2023-05-10T08:56:27;13.27;;;5.97;;
27794;SDS011;15176;50.844;4.412;2023-05-10T08:58:53;21.45;;;14.38;;
27794;SDS011;15176;50.844;4.412;2023-05-10T09:01:20;14.02;;;6.63;;
27794;SDS011;15176;50.844;4.412;2023-05-10T09:03:46;12.68;;;6.63;;
27794;SDS011;15176;50.844;4.412;2023-05-10T09:06:13;10.50;;;6.00;;
27794;SDS011;15176;50.844;4.412;2023-05-10T09:08:41;15.13;;;6.65;;
27794;SDS011;15176;50.844;4.412;2023-05-10T09:11:08;11.30;;;6.28;;
27794;SDS011;15176;50.844;4.412;2023-05-10T09:13:35;11.05;;;5.78;;
27794;SDS011;15176;50.844;4.412;2023-05-10T09:16:02;11.73;;;6.78;;
27794;SDS011;15176;50.844;4.412;2023-05-10T09:18:28;11.70;;;5.95;;
27794;SDS011;15176;50.844;4.412;2023-05-10T09:20:54;16.33;;;6.30;;
27794;SDS011;15176;50.844;4.412;2023-05-10T09:23:20;10.57;;;5.40;;
27794;SDS011;15176;50.844;4.412;2023-05-10T09:26:01;10.77;;;5.95;;
27794;SDS011;15176;50.844;4.412;2023-05-10T09:28:33;13.70;;;6.60;;
27794;SDS011;15176;50.844;4.412;2023-05-10T09:31:15;10.63;;;5.30;;
27794;SDS011;15176;50.844;4.412;2023-05-10T09:33:43;9.90;;;5.47;;
27794;SDS011;15176;50.844;4.412;2023-05-10T09:36:10;9.50;;;5.00;;
27794;SDS011;15176;50.844;4.412;2023-05-10T09:38:49;10.55;;;5.55;;
27794;SDS011;15176;50.844;4.412;2023-05-10T09:41:19;8.70;;;4.95;;
27794;SDS011;15176;50.844;4.412;2023-05-10T09:43:46;11.48;;;4.35;;
27794;SDS011;15176;50.844;4.412;2023-05-10T09:46:12;6.28;;;3.60;;
27794;SDS011;15176;50.844;4.412;2023-05-10T09:48:41;6.10;;;3.78;;
27794;SDS011;15176;50.844;4.412;2023-05-10T09:51:09;9.82;;;3.75;;
27794;SDS011;15176;50.844;4.412;2023-05-10T09:53:35;6.90;;;3.85;;
27794;SDS011;15176;50.844;4.412;2023-05-10T09:56:00;8.38;;;4.05;;
27794;SDS011;15176;50.844;4.412;2023-05-10T09:58:26;7.22;;;4.10;;
27794;SDS011;15176;50.844;4.412;2023-05-10T10:00:52;7.95;;;4.00;;
27794;SDS011;15176;50.844;4.412;2023-05-10T10:03:19;11.73;;;4.68;;
27794;SDS011;15176;50.844;4.412;2023-05-10T10:05:48;7.32;;;4.10;;
27794;SDS011;15176;50.844;4.412;2023-05-10T10:08:14;7.45;;;4.38;;
27794;SDS011;15176;50.844;4.412;2023-05-10T10:10:40;7.60;;;3.92;;
27794;SDS011;15176;50.844;4.412;2023-05-10T10:13:07;7.40;;;4.28;;
27794;SDS011;15176;50.844;4.412;2023-05-10T10:15:33;9.32;;;4.65;;
27794;SDS011;15176;50.844;4.412;2023-05-10T10:18:00;7.35;;;4.60;;
27794;SDS011;15176;50.844;4.412;2023-05-10T10:20:26;9.90;;;4.30;;
27794;SDS011;15176;50.844;4.412;2023-05-10T10:22:53;9.07;;;4.60;;
27794;SDS011;15176;50.844;4.412;2023-05-10T10:25:19;8.77;;;4.72;;
27794;SDS011;15176;50.844;4.412;2023-05-10T10:30:31;7.07;;;4.10;;
27794;SDS011;15176;50.844;4.412;2023-05-10T10:36:22;6.97;;;4.70;;
27794;SDS011;15176;50.844;4.412;2023-05-10T10:41:30;7.75;;;4.40;;
27794;SDS011;15176;50.844;4.412;2023-05-10T10:47:02;7.95;;;4.60;;
27794;SDS011;15176;50.844;4.412;2023-05-10T10:49:51;7.18;;;4.15;;
27794;SDS011;15176;50.844;4.412;2023-05-10T10:57:54;10.48;;;4.85;;
27794;SDS011;15176;50.844;4.412;2023-05-10T11:00:33;10.48;;;3.80;;
27794;SDS011;15176;50.844;4.412;2023-05-10T11:03:03;7.65;;;4.07;;
27794;SDS011;15176;50.844;4.412;2023-05-10T11:08:28;8.00;;;4.70;;
27794;SDS011;15176;50.844;4.412;2023-05-10T11:13:28;8.75;;;4.50;;
27794;SDS011;15176;50.844;4.412;2023-05-10T11:16:10;12.27;;;5.20;;
27794;SDS011;15176;50.844;4.412;2023-05-10T11:18:53;8.45;;;4.80;;
27794;SDS011;15176;50.844;4.412;2023-05-10T11:21:21;8.90;;;4.60;;
27794;SDS011;15176;50.844;4.412;2023-05-10T11:23:51;8.05;;;4.93;;
27794;SDS011;15176;50.844;4.412;2023-05-10T11:26:21;8.10;;;4.60;;
27794;SDS011;15176;50.844;4.412;2023-05-10T11:28:54;9.32;;;5.13;;
27794;SDS011;15176;50.844;4.412;2023-05-10T11:31:20;8.63;;;5.30;;
27794;SDS011;15176;50.844;4.412;2023-05-10T11:33:50;6.53;;;4.30;;
27794;SDS011;15176;50.844;4.412;2023-05-10T11:39:04;8.30;;;4.80;;
27794;SDS011;15176;50.844;4.412;2023-05-10T11:41:30;8.05;;;4.60;;
27794;SDS011;15176;50.844;4.412;2023-05-10T11:43:56;8.57;;;4.78;;
27794;SDS011;15176;50.844;4.412;2023-05-10T11:46:23;8.18;;;4.35;;
27794;SDS011;15176;50.844;4.412;2023-05-10T11:48:51;11.27;;;4.50;;
27794;SDS011;15176;50.844;4.412;2023-05-10T11:51:20;9.13;;;4.53;;
27794;SDS011;15176;50.844;4.412;2023-05-10T11:53:47;7.82;;;4.45;;
27794;SDS011;15176;50.844;4.412;2023-05-10T11:56:14;7.25;;;4.32;;
27794;SDS011;15176;50.844;4.412;2023-05-10T11:58:39;7.15;;;4.18;;
27794;SDS011;15176;50.844;4.412;2023-05-10T12:01:06;8.57;;;4.55;;
27794;SDS011;15176;50.844;4.412;2023-05-10T12:03:34;6.82;;;4.40;;
27794;SDS011;15176;50.844;4.412;2023-05-10T12:06:00;9.07;;;4.45;;
27794;SDS011;15176;50.844;4.412;2023-05-10T12:08:27;7.95;;;4.78;;
27794;SDS011;15176;50.844;4.412;2023-05-10T12:11:04;7.93;;;4.05;;
27794;SDS011;15176;50.844;4.412;2023-05-10T12:13:31;7.22;;;4.35;;
27794;SDS011;15176;50.844;4.412;2023-05-10T12:16:00;14.68;;;8.10;;
27794;SDS011;15176;50.844;4.412;2023-05-10T12:18:41;8.40;;;5.28;;
27794;SDS011;15176;50.844;4.412;2023-05-10T12:21:10;10.65;;;5.60;;
27794;SDS011;15176;50.844;4.412;2023-05-10T12:23:37;10.80;;;6.07;;
27794;SDS011;15176;50.844;4.412;2023-05-10T12:26:04;10.43;;;6.38;;
27794;SDS011;15176;50.844;4.412;2023-05-10T12:28:31;9.07;;;5.70;;
27794;SDS011;15176;50.844;4.412;2023-05-10T12:30:57;25.90;;;14.40;;
27794;SDS011;15176;50.844;4.412;2023-05-10T12:33:24;10.25;;;5.75;;
27794;SDS011;15176;50.844;4.412;2023-05-10T12:35:51;9.57;;;6.00;;
27794;SDS011;15176;50.844;4.412;2023-05-10T12:38:34;10.73;;;6.15;;
27794;SDS011;15176;50.844;4.412;2023-05-10T12:41:03;10.00;;;6.03;;
27794;SDS011;15176;50.844;4.412;2023-05-10T12:43:31;12.48;;;5.90;;
27794;SDS011;15176;50.844;4.412;2023-05-10T12:45:58;9.75;;;5.68;;
27794;SDS011;15176;50.844;4.412;2023-05-10T12:48:24;9.20;;;5.28;;
27794;SDS011;15176;50.844;4.412;2023-05-10T12:50:53;9.38;;;5.78;;
27794;SDS011;15176;50.844;4.412;2023-05-10T12:53:19;9.45;;;5.80;;
27794;SDS011;15176;50.844;4.412;2023-05-10T12:55:45;11.63;;;6.38;;
27794;SDS011;15176;50.844;4.412;2023-05-10T12:58:11;11.13;;;6.30;;
27794;SDS011;15176;50.844;4.412;2023-05-10T13:00:36;15.10;;;7.60;;
27794;SDS011;15176;50.844;4.412;2023-05-10T13:03:03;11.52;;;6.43;;
27794;SDS011;15176;50.844;4.412;2023-05-10T13:05:31;14.40;;;5.45;;
27794;SDS011;15176;50.844;4.412;2023-05-10T13:07:57;8.63;;;5.57;;
27794;SDS011;15176;50.844;4.412;2023-05-10T13:10:23;8.38;;;5.47;;
27794;SDS011;15176;50.844;4.412;2023-05-10T13:12:50;10.73;;;5.22;;
27794;SDS011;15176;50.844;4.412;2023-05-10T13:15:16;11.02;;;5.70;;
27794;SDS011;15176;50.844;4.412;2023-05-10T13:17:42;12.13;;;4.50;;
27794;SDS011;15176;50.844;4.412;2023-05-10T13:20:08;7.82;;;4.15;;
27794;SDS011;15176;50.844;4.412;2023-05-10T13:22:34;7.75;;;4.75;;
27794;SDS011;15176;50.844;4.412;2023-05-10T13:25:00;7.53;;;3.80;;
27794;SDS011;15176;50.844;4.412;2023-05-10T13:27:27;6.10;;;3.50;;
27794;SDS011;15176;50.844;4.412;2023-05-10T13:29:52;7.47;;;4.22;;
27794;SDS011;15176;50.844;4.412;2023-05-10T13:32:18;7.60;;;3.85;;
27794;SDS011;15176;50.844;4.412;2023-05-10T13:34:44;5.97;;;3.42;;
27794;SDS011;15176;50.844;4.412;2023-05-10T13:37:09;5.95;;;3.40;;
27794;SDS011;15176;50.844;4.412;2023-05-10T13:39:35;7.20;;;4.22;;
27794;SDS011;15176;50.844;4.412;2023-05-10T13:42:02;7.68;;;4.82;;
27794;SDS011;15176;50.844;4.412;2023-05-10T13:44:30;9.02;;;4.85;;
27794;SDS011;15176;50.844;4.412;2023-05-10T13:46:57;8.52;;;5.13;;
27794;SDS011;15176;50.844;4.412;2023-05-10T13:49:22;8.90;;;5.22;;
27794;SDS011;15176;50.844;4.412;2023-05-10T13:51:48;10.50;;;5.50;;
27794;SDS011;15176;50.844;4.412;2023-05-10T13:54:14;11.13;;;5.72;;
27794;SDS011;15176;50.844;4.412;2023-05-10T13:56:39;9.10;;;5.35;;
27794;SDS011;15176;50.844;4.412;2023-05-10T13:59:07;10.30;;;5.70;;
27794;SDS011;15176;50.844;4.412;2023-05-10T14:01:33;11.18;;;5.85;;
27794;SDS011;15176;50.844;4.412;2023-05-10T14:03:59;11.43;;;5.80;;
27794;SDS011;15176;50.844;4.412;2023-05-10T14:06:25;13.38;;;6.93;;
27794;SDS011;15176;50.844;4.412;2023-05-10T14:08:53;10.57;;;6.13;;
27794;SDS011;15176;50.844;4.412;2023-05-10T14:11:18;14.32;;;6.55;;
27794;SDS011;15176;50.844;4.412;2023-05-10T14:13:45;13.80;;;7.28;;
27794;SDS011;15176;50.844;4.412;2023-05-10T14:16:10;11.98;;;7.80;;
27794;SDS011;15176;50.844;4.412;2023-05-10T14:18:36;15.45;;;8.80;;
27794;SDS011;15176;50.844;4.412;2023-05-10T14:21:02;12.25;;;8.32;;
27794;SDS011;15176;50.844;4.412;2023-05-10T14:23:29;11.73;;;8.13;;
27794;SDS011;15176;50.844;4.412;2023-05-10T14:25:55;13.18;;;8.18;;
27794;SDS011;15176;50.844;4.412;2023-05-10T14:28:21;16.70;;;10.38;;
27794;SDS011;15176;50.844;4.412;2023-05-10T14:30:48;17.30;;;10.82;;
27794;SDS011;15176;50.844;4.412;2023-05-10T14:33:14;16.13;;;10.15;;
27794;SDS011;15176;50.844;4.412;2023-05-10T14:35:40;16.77;;;10.65;;
27794;SDS011;15176;50.844;4.412;2023-05-10T14:38:06;32.88;;;21.80;;
27794;SDS011;15176;50.844;4.412;2023-05-10T14:40:32;18.98;;;10.48;;
27794;SDS011;15176;50.844;4.412;2023-05-10T14:42:58;14.30;;;8.98;;
27794;SDS011;15176;50.844;4.412;2023-05-10T14:45:24;13.45;;;9.30;;
27794;SDS011;15176;50.844;4.412;2023-05-10T14:47:49;15.00;;;9.07;;
27794;SDS011;15176;50.844;4.412;2023-05-10T14:50:17;14.85;;;9.57;;
27794;SDS011;15176;50.844;4.412;2023-05-10T14:52:43;19.65;;;9.90;;
27794;SDS011;15176;50.844;4.412;2023-05-10T14:55:09;19.08;;;10.52;;
27794;SDS011;15176;50.844;4.412;2023-05-10T14:57:35;18.38;;;9.70;;
27794;SDS011;15176;50.844;4.412;2023-05-10T15:00:01;17.90;;;10.50;;
27794;SDS011;15176;50.844;4.412;2023-05-10T15:02:28;17.48;;;11.07;;
27794;SDS011;15176;50.844;4.412;2023-05-10T15:04:55;15.55;;;10.25;;
27794;SDS011;15176;50.844;4.412;2023-05-10T15:07:22;18.60;;;10.77;;
27794;SDS011;15176;50.844;4.412;2023-05-10T15:09:50;13.75;;;8.35;;
27794;SDS011;15176;50.844;4.412;2023-05-10T15:12:19;14.98;;;8.02;;
27794;SDS011;15176;50.844;4.412;2023-05-10T15:14:45;13.77;;;7.40;;
27794;SDS011;15176;50.844;4.412;2023-05-10T15:17:11;13.65;;;7.78;;
27794;SDS011;15176;50.844;4.412;2023-05-10T15:19:37;13.20;;;6.82;;